Airfield :
LOGIN :

Register | Disclaimer

   EN    FR    IT 

 










Legend :    VFR   Marginal VFR   IFR   Intensive IFR   Very Intensive IFR
Visi :
Ceiling :
>= 8 km
>= 3000ft
5 to 8 km
1000 to 3000 ft
1500m to 5 km
500 to 1000 ft
800 to 1500m
200 to 500 ft
< 800m
< 200 ft
Symbols :   Thunderstorms  Fog  Heavy snow  Heavy precipitations  Wind > 20 kt
SIGMETs :     Misc.  Thunderstorms  Icing  Turbulence  Mountain Waves  Volcanic Ashes







- Airport Elevation : 72 ft
- IATA code : UDE


EHVK - Volkel Airbase

CURRENT METAR :
  • 270640Z AUTO 05009KT 020V090 9999 FEW017 16/11 Q1029 BLU 04008KT 9999 BKN016 BECMG FEW020

EXPIRED METARs :
  • 270639Z AUTO 05008KT 020V080 9999 SCT016 16/11 Q1029 WHT 04008KT 9999 BKN016 BECMG FEW020
  • 270625Z AUTO 05008KT 020V090 9999 BKN016 16/11 Q1029 WHT 04008KT 9999 BKN016 BECMG FEW020
  • 270557Z AUTO 05009KT 020V090 9999 OVC015 16/11 Q1029 WHT 04008KT 9999 BKN016 BECMG FEW020
  • 270540Z AUTO 04007KT 350V080 9999 BKN015 14/11 Q1028 WHT
  • 270536Z AUTO 05007KT 010V080 9999 SCT015 14/11 Q1028 WHT
  • 270525Z AUTO 04008KT 010V080 9999 FEW015 15/11 Q1028 BLU
  • 270514Z AUTO 05009KT 010V070 9999 FEW014 14/11 Q1028 BLU
  • 270503Z AUTO 03005KT 360V060 9999 OVC015 15/12 Q1028 WHT
  • 270455Z AUTO 02005KT 360V070 9999 OVC014 15/12 Q1028 GRN
  • 270443Z AUTO 01005KT 340V050 9999 OVC015 15/12 Q1028 WHT
  • 270436Z AUTO 01006KT 9999 OVC014 15/12 Q1028 GRN
  • 270427Z AUTO 02006KT 350V050 9999 OVC015 14/12 Q1028 WHT
  • 270355Z AUTO 03005KT 360V070 9999 OVC014 15/12 Q1028 GRN

TAF TAF EHVK
Valid from the 27 at 05:00 until the 27 at 17:00 UTC


270402Z 2705/2717 03008KT 9999 BKN015
BECMG 2707/2709 FEW020
No reported NOTAMs for that airfield.



MET'MAP, your aeronautical weather chart ! - Copyright ORBIFLY December 2007 - Disclaimer

ORBIFLY MET'MAP TEAM :

Programming & Development : Alexandra Zaïnal
Concept & Development : Baudouin d'Aumeries
Co-Development & Prog : Marc-Olivier Méhu
Technical & hardware support : Manuel Goepfert

Contact : metmap@orbifly.com




SOURCES & CREDITS :

   NOAA